首页
METAR-TAF:

METAR-TAF

机场 :

莫尔莱, 法国

纬度: 48-36N, 经度: 3-49W, 海拔: 84米

当前天气观测

该预报发布于26分钟前的13:00 UTC
风速5节,风向东转东北,在北转东北之间变化
温度 19°C
湿度 78%
气压 1010 hPa
能见度10公里或以上
1500米以下无云,无积雨云

METAR: LFRU 181300Z AUTO 06005KT 020V100 CAVOK 19/15 Q1010

时间: 15:26 (13:26 UTC)


TAF: 丢失

超过4000个机场的气象观测和天气预报(METAR&TAF报告)。

可查询的气象台以黄色和红色小点在地图上表示。

将鼠标移到小点上方,可查看气象台名称。

然后点击查看天气观测和预报。

如需切换地图:点击带黑十字的绿色按钮放大地图;点击带横线的绿色按钮缩小地图;或者点击绿色箭头查看邻近地区的地图。


METAR-TAF: